Time;durP1;ratioP1;P1;durP2;ratioP2;P2;SDS_P1;SDS_P2;PMS_P1;PMS_P2;Temp;Humidity;BMP_temperature;BMP_pressure;BME280_temperature;BME280_humidity;BME280_pressure;Samples;Min_cycle;Max_cycle;Signal;HPM_P1;HPM_P2
2022/08/03 00:04:41;;;;;;;0.90;0.90;;;16.40;99.90;;;;;;21026248;28;20044;-59
2022/08/03 00:14:44;;;;;;;2.28;0.90;;;16.30;99.90;;;;;;21053347;28;20097;-57
2022/08/03 00:24:46;;;;;;;1.92;1.00;;;16.00;99.90;;;;;;21057869;28;20431;-56
2022/08/03 00:34:48;;;;;;;1.33;0.85;;;16.00;99.90;;;;;;21058389;28;20101;-56
2022/08/03 00:44:51;;;;;;;1.25;0.85;;;16.10;99.90;;;;;;21057104;28;20501;-56
2022/08/03 00:54:53;;;;;;;1.00;0.80;;;15.70;99.90;;;;;;21056711;28;20036;-60
2022/08/03 01:04:56;;;;;;;0.85;0.73;;;15.50;99.90;;;;;;21002968;28;20032;-56
2022/08/03 01:15:05;;;;;;;2.40;0.90;;;15.20;99.90;;;;;;21044749;28;20054;-56
2022/08/03 01:25:27;;;;;;;1.07;0.90;;;15.10;99.90;;;;;;21054571;28;20032;-56
2022/08/03 01:35:56;;;;;;;1.75;0.90;;;15.10;99.90;;;;;;21053462;28;20320;-56
2022/08/03 01:45:59;;;;;;;1.00;0.90;;;15.10;99.90;;;;;;21053067;28;20036;-59
2022/08/03 01:56:04;;;;;;;0.93;0.90;;;15.00;99.90;;;;;;21052469;28;20540;-56
2022/08/03 02:06:11;;;;;;;1.50;1.02;;;14.90;99.90;;;;;;21005514;28;20062;-59
2022/08/03 02:16:13;;;;;;;2.15;1.10;;;14.80;99.90;;;;;;21045499;28;20093;-56
2022/08/03 02:26:21;;;;;;;1.17;1.08;;;14.60;99.90;;;;;;21050649;28;20366;-56
2022/08/03 02:36:27;;;;;;;1.25;1.00;;;14.50;99.90;;;;;;21050106;28;20548;-59
2022/08/03 02:46:33;;;;;;;1.35;1.17;;;14.40;99.90;;;;;;21050271;28;20066;-56
2022/08/03 02:56:36;;;;;;;1.75;1.40;;;14.40;99.90;;;;;;21066431;28;20105;-56
2022/08/03 03:06:40;;;;;;;2.10;1.60;;;14.40;99.90;;;;;;21014486;28;20040;-56
2022/08/03 03:16:45;;;;;;;1.58;1.45;;;14.50;99.90;;;;;;21057008;28;20032;-59
2022/08/03 03:26:49;;;;;;;3.08;1.67;;;14.50;99.90;;;;;;21083621;28;20042;-55
2022/08/03 03:36:51;;;;;;;1.90;1.65;;;14.50;99.90;;;;;;21063142;28;20044;-56
2022/08/03 03:46:57;;;;;;;1.40;1.30;;;14.40;99.90;;;;;;21062550;28;20415;-59
2022/08/03 03:56:59;;;;;;;2.13;1.85;;;14.60;99.90;;;;;;21061524;28;20105;-57
2022/08/03 04:17:28;;;;;;;1.45;1.35;;;14.60;99.90;;;;;;21060303;28;20117;-56
2022/08/03 04:27:36;;;;;;;2.38;2.15;;;14.50;99.90;;;;;;21059450;28;20101;-59
2022/08/03 04:37:46;;;;;;;3.25;1.50;;;14.50;99.90;;;;;;21058553;28;20447;-55
2022/08/03 04:47:49;;;;;;;1.70;1.40;;;14.60;99.90;;;;;;21134199;28;20032;-59
2022/08/03 04:57:52;;;;;;;1.80;1.05;;;14.60;99.90;;;;;;21140217;28;20489;-56
2022/08/03 05:07:55;;;;;;;3.50;1.52;;;14.70;99.90;;;;;;21077738;28;20032;-59
2022/08/03 05:17:58;;;;;;;1.48;1.30;;;14.70;99.90;;;;;;21054839;28;20032;-58
2022/08/03 05:28:00;;;;;;;3.33;1.17;;;14.80;99.90;;;;;;21054384;28;20061;-59
2022/08/03 05:38:02;;;;;;;1.42;1.15;;;14.90;99.90;;;;;;21002001;28;20040;-57
2022/08/03 05:48:05;;;;;;;1.35;1.25;;;15.10;99.90;;;;;;21047429;28;20040;-59
2022/08/03 05:58:07;;;;;;;2.33;0.98;;;15.20;99.90;;;;;;21051771;28;20040;-56
2022/08/03 06:08:10;;;;;;;1.30;1.20;;;15.40;99.90;;;;;;20987817;28;20040;-56
2022/08/03 06:18:13;;;;;;;1.58;1.10;;;15.50;99.90;;;;;;21038349;28;20362;-56
2022/08/03 06:28:17;;;;;;;1.08;0.98;;;15.80;99.90;;;;;;20993256;28;20572;-58
2022/08/03 06:38:19;;;;;;;0.90;0.80;;;17.30;99.90;;;;;;21002829;28;20074;-63
2022/08/03 06:48:21;;;;;;;1.88;0.90;;;21.30;99.90;;;;;;20997025;28;20041;-59
2022/08/03 06:58:23;;;;;;;2.05;0.90;;;24.40;93.60;;;;;;21022837;28;20169;-59
2022/08/03 07:08:27;;;;;;;1.17;0.90;;;26.50;90.10;;;;;;20985936;28;20029;-59
2022/08/03 07:18:29;;;;;;;1.08;0.93;;;27.30;87.50;;;;;;21032240;28;20032;-63
2022/08/03 07:28:32;;;;;;;1.50;0.88;;;28.10;83.90;;;;;;21048444;28;20050;-59
2022/08/03 07:38:35;;;;;;;1.15;0.80;;;28.20;81.50;;;;;;21040899;28;20567;-60
2022/08/03 07:48:38;;;;;;;1.75;0.70;;;27.80;83.50;;;;;;21062746;28;20481;-61
2022/08/03 07:58:41;;;;;;;1.10;1.00;;;28.20;83.20;;;;;;21003952;28;20040;-60
2022/08/03 08:08:45;;;;;;;1.03;1.00;;;28.20;81.40;;;;;;20989113;28;20513;-60
2022/08/03 08:18:47;;;;;;;2.10;1.13;;;28.20;84.00;;;;;;21046023;28;20036;-59
2022/08/03 08:28:51;;;;;;;2.25;1.33;;;28.60;82.10;;;;;;21038915;28;20044;-59
2022/08/03 08:38:53;;;;;;;2.72;1.30;;;28.90;80.20;;;;;;21058442;28;20040;-59
2022/08/03 08:48:58;;;;;;;2.30;1.70;;;29.30;80.30;;;;;;21025041;28;20036;-59
2022/08/03 08:59:01;;;;;;;1.67;1.27;;;29.70;81.00;;;;;;21034690;28;20040;-60
2022/08/03 09:09:07;;;;;;;3.25;1.52;;;28.70;80.90;;;;;;21046297;28;20036;-59
2022/08/03 09:19:13;;;;;;;1.63;1.53;;;28.70;82.40;;;;;;21039455;28;20036;-60
2022/08/03 09:29:20;;;;;;;5.28;1.48;;;29.30;80.90;;;;;;21032986;28;20044;-59
2022/08/03 09:39:25;;;;;;;2.33;1.40;;;30.00;80.10;;;;;;21053281;28;20044;-61
2022/08/03 09:49:27;;;;;;;3.10;1.77;;;30.00;77.10;;;;;;21052960;28;20036;-59
2022/08/03 09:59:31;;;;;;;2.08;1.83;;;30.00;78.70;;;;;;21051586;28;20434;-57
2022/08/03 10:09:35;;;;;;;2.70;2.07;;;30.20;79.50;;;;;;21051772;28;20412;-58
2022/08/03 10:19:39;;;;;;;2.60;2.08;;;29.90;79.80;;;;;;21051408;28;20036;-58
2022/08/03 10:29:48;;;;;;;2.80;2.20;;;30.10;76.30;;;;;;21050006;28;20032;-59
2022/08/03 10:39:54;;;;;;;2.35;1.88;;;28.70;79.30;;;;;;21050169;28;20070;-58
2022/08/03 10:49:57;;;;;;;2.70;1.60;;;27.90;82.90;;;;;;21050277;28;20101;-58
2022/08/03 11:00:02;;;;;;;2.45;1.60;;;28.30;82.00;;;;;;21049635;28;20028;-58
2022/08/03 11:10:29;;;;;;;3.25;1.50;;;29.40;80.40;;;;;;21031981;28;20549;-58
2022/08/03 11:20:52;;;;;;;1.83;1.73;;;29.80;77.00;;;;;;21034065;28;20093;-58
2022/08/03 11:30:55;;;;;;;6.90;2.00;;;30.00;77.60;;;;;;21044354;28;20036;-58
2022/08/03 11:40:57;;;;;;;3.97;1.88;;;30.20;78.80;;;;;;21125000;28;20035;-58
2022/08/03 11:51:05;;;;;;;2.45;1.98;;;30.60;78.10;;;;;;21145632;28;20061;-58
2022/08/03 12:01:10;;;;;;;3.90;2.00;;;29.80;79.30;;;;;;21080302;28;20443;-57
2022/08/03 12:11:14;;;;;;;3.70;2.58;;;29.80;78.30;;;;;;21026683;28;20028;-58
2022/08/03 12:21:17;;;;;;;11.98;2.20;;;30.00;77.40;;;;;;21082039;28;20538;-57
2022/08/03 12:31:20;;;;;;;4.60;2.08;;;30.80;78.90;;;;;;21006345;28;20383;-57
2022/08/03 12:41:39;;;;;;;4.00;2.45;;;30.60;78.40;;;;;;20993472;28;20037;-57
2022/08/03 12:51:42;;;;;;;3.47;2.10;;;30.50;76.80;;;;;;21018938;28;20044;-57
2022/08/03 13:01:44;;;;;;;2.38;1.88;;;30.70;78.60;;;;;;21050994;28;20074;-57
2022/08/03 13:12:02;;;;;;;4.35;2.53;;;30.60;78.60;;;;;;21061785;28;20434;-57
2022/08/03 13:22:20;;;;;;;4.28;2.13;;;30.70;74.80;;;;;;21033117;28;20485;-57
2022/08/03 13:32:23;;;;;;;4.07;2.05;;;30.50;76.40;;;;;;21108125;28;20485;-57
2022/08/03 13:42:26;;;;;;;3.97;2.00;;;29.90;76.70;;;;;;21081227;28;20502;-57
2022/08/03 13:52:46;;;;;;;1.70;1.60;;;29.90;77.00;;;;;;20984125;28;20041;-57
2022/08/03 14:02:49;;;;;;;2.45;1.88;;;29.90;76.40;;;;;;20972154;28;20459;-56
2022/08/03 14:12:51;;;;;;;4.07;2.20;;;30.10;76.20;;;;;;21030728;28;20081;-56
2022/08/03 14:22:55;;;;;;;4.00;2.13;;;30.60;74.30;;;;;;20997847;28;20101;-64
2022/08/03 14:32:57;;;;;;;3.53;1.80;;;30.70;76.10;;;;;;21029262;28;20048;-56
2022/08/03 14:42:59;;;;;;;4.00;2.25;;;30.60;76.10;;;;;;20914361;28;20531;-56
2022/08/03 14:53:01;;;;;;;4.55;2.38;;;30.60;74.40;;;;;;21020809;28;20048;-56
2022/08/03 15:03:04;;;;;;;2.05;1.95;;;30.70;72.00;;;;;;21000391;28;20044;-56
2022/08/03 15:13:06;;;;;;;2.03;1.92;;;30.40;72.90;;;;;;20981080;28;20172;-56
2022/08/03 15:23:09;;;;;;;2.95;2.08;;;28.90;76.30;;;;;;20980311;28;20102;-56
2022/08/03 15:33:11;;;;;;;2.25;2.05;;;28.50;76.20;;;;;;20986987;28;20493;-56
2022/08/03 15:43:14;;;;;;;3.08;2.60;;;28.60;76.30;;;;;;21062261;28;20036;-54
2022/08/03 15:53:16;;;;;;;2.22;1.80;;;29.20;76.30;;;;;;21061200;28;20405;-54
2022/08/03 16:03:19;;;;;;;3.78;2.83;;;28.40;77.80;;;;;;21010572;28;20051;-55
2022/08/03 16:13:21;;;;;;;2.47;2.28;;;29.30;74.40;;;;;;21009869;28;20036;-55
2022/08/03 16:23:25;;;;;;;4.82;2.35;;;28.70;75.70;;;;;;21031168;28;20035;-54
2022/08/03 16:33:27;;;;;;;3.30;2.05;;;27.90;76.60;;;;;;21057904;28;20066;-54
2022/08/03 16:43:33;;;;;;;4.70;2.28;;;26.10;81.30;;;;;;21111697;28;20032;-53
2022/08/03 16:53:35;;;;;;;3.47;2.65;;;24.60;84.30;;;;;;21086477;28;20036;-52
2022/08/03 17:03:39;;;;;;;2.78;2.45;;;23.60;89.60;;;;;;21022976;28;20070;-57
2022/08/03 17:13:43;;;;;;;3.28;3.00;;;22.60;91.30;;;;;;21053521;28;20112;-53
2022/08/03 17:24:16;;;;;;;4.45;2.72;;;21.70;93.30;;;;;;21055140;28;20032;-54
2022/08/03 17:34:20;;;;;;;4.70;2.60;;;21.10;94.80;;;;;;21053431;28;20097;-52
2022/08/03 17:44:22;;;;;;;5.85;3.05;;;20.80;95.40;;;;;;21052991;28;20040;-52
2022/08/03 17:54:48;;;;;;;8.50;3.35;;;20.30;97.10;;;;;;21052976;28;20035;-52
2022/08/03 18:05:09;;;;;;;4.60;3.42;;;19.80;97.90;;;;;;21029328;28;20536;-53
2022/08/03 18:15:14;;;;;;;5.70;2.88;;;19.40;99.60;;;;;;21050897;28;20403;-52
2022/08/03 18:25:19;;;;;;;5.90;3.17;;;19.00;99.90;;;;;;21051041;28;20032;-53
2022/08/03 18:35:24;;;;;;;5.10;3.90;;;18.70;99.90;;;;;;21033186;28;20089;-52
2022/08/03 18:45:28;;;;;;;4.22;3.55;;;18.40;99.90;;;;;;21049549;28;20101;-53
2022/08/03 18:55:33;;;;;;;4.43;3.35;;;18.30;99.90;;;;;;21049433;28;20129;-52
2022/08/03 19:05:41;;;;;;;6.22;3.80;;;18.10;99.90;;;;;;21131905;28;20047;-52
2022/08/03 19:15:48;;;;;;;5.32;3.80;;;17.80;99.90;;;;;;21131403;28;20036;-52
2022/08/03 19:25:52;;;;;;;5.60;4.25;;;17.60;99.90;;;;;;21113660;28;20085;-52
2022/08/03 19:35:56;;;;;;;5.38;3.65;;;17.60;99.90;;;;;;21141250;28;20437;-48
2022/08/03 19:46:03;;;;;;;5.38;4.15;;;17.40;99.90;;;;;;21144907;28;20035;-52
2022/08/03 19:56:06;;;;;;;9.90;5.13;;;17.50;99.90;;;;;;21137629;28;20399;-51
2022/08/03 20:06:11;;;;;;;8.50;3.90;;;17.30;99.90;;;;;;21008942;28;20063;-64
2022/08/03 20:16:13;;;;;;;4.82;4.30;;;17.40;99.90;;;;;;21031400;28;20040;-60
2022/08/03 20:26:19;;;;;;;3.72;3.35;;;17.40;99.90;;;;;;21113305;28;20043;-65
2022/08/03 20:36:21;;;;;;;3.63;3.33;;;17.20;99.90;;;;;;21098043;28;20045;-64
2022/08/03 20:46:24;;;;;;;4.68;4.00;;;17.00;99.90;;;;;;21029388;28;20036;-68
2022/08/03 20:56:32;;;;;;;4.68;3.85;;;16.80;99.90;;;;;;21022166;28;20032;-66
2022/08/03 21:06:40;;;;;;;5.18;4.45;;;16.70;99.90;;;;;;21021069;28;20029;-63
2022/08/03 21:16:45;;;;;;;6.57;4.57;;;16.60;99.90;;;;;;21025574;28;20101;-63
2022/08/03 21:26:52;;;;;;;5.38;4.25;;;16.50;99.90;;;;;;20998317;28;20265;-64
2022/08/03 21:36:55;;;;;;;7.78;4.55;;;16.40;99.90;;;;;;20985577;28;20110;-68
2022/08/03 21:46:59;;;;;;;6.20;4.65;;;16.40;99.90;;;;;;21022625;28;20389;-65
2022/08/03 21:57:11;;;;;;;5.63;5.00;;;16.30;99.90;;;;;;21029842;28;20106;-65
2022/08/03 22:07:15;;;;;;;7.43;5.47;;;16.30;99.90;;;;;;21021593;28;20054;-66
2022/08/03 22:17:19;;;;;;;6.47;4.60;;;16.40;99.90;;;;;;21050593;28;20028;-69
2022/08/03 22:27:31;;;;;;;9.07;5.05;;;16.50;99.90;;;;;;21050133;28;20447;-67
2022/08/03 22:37:34;;;;;;;7.13;4.97;;;16.40;99.90;;;;;;21049433;28;20554;-67
2022/08/03 22:47:39;;;;;;;7.18;5.32;;;16.30;99.90;;;;;;21049395;28;20040;-67
2022/08/03 22:57:44;;;;;;;5.65;5.00;;;16.20;99.90;;;;;;21035704;28;20043;-63
2022/08/03 23:07:50;;;;;;;8.25;6.32;;;16.10;99.90;;;;;;21139242;28;20553;-62
2022/08/03 23:17:56;;;;;;;5.00;4.25;;;16.00;99.90;;;;;;21147766;28;20488;-63
2022/08/03 23:28:01;;;;;;;9.48;5.75;;;15.90;99.90;;;;;;21147325;28;20039;-68
2022/08/03 23:38:07;;;;;;;7.57;5.75;;;15.90;99.90;;;;;;21094398;28;20044;-63
2022/08/03 23:48:11;;;;;;;7.80;6.95;;;15.90;99.90;;;;;;21062393;28;20445;-62
2022/08/03 23:58:16;;;;;;;7.13;6.28;;;15.90;99.90;;;;;;21060870;28;20062;-71
